createdAt,value
2023-04-15T19:31:00.422Z,10.71
2023-04-15T19:33:31.132Z,10.68
2023-04-15T19:35:59.256Z,10.70
2023-04-15T19:38:27.193Z,10.66
2023-04-15T19:40:55.200Z,10.64
2023-04-15T19:43:23.104Z,10.63
2023-04-15T19:45:52.900Z,10.64
2023-04-15T19:48:23.703Z,10.49
2023-04-15T19:50:51.668Z,10.60
2023-04-15T19:53:19.613Z,10.60
2023-04-15T19:55:48.407Z,10.58
2023-04-15T19:58:16.570Z,10.53
2023-04-15T20:00:44.489Z,10.54
2023-04-15T20:03:12.696Z,10.53
2023-04-15T20:05:42.014Z,10.53
2023-04-15T20:08:10.287Z,10.51
2023-04-15T20:10:38.485Z,10.51
2023-04-15T20:13:06.563Z,10.51
2023-04-15T20:15:34.578Z,10.50
2023-04-15T20:18:02.614Z,10.50
2023-04-15T20:20:30.553Z,10.48
2023-04-15T20:22:59.835Z,10.45
2023-04-15T20:25:27.869Z,10.47
2023-04-15T20:27:56.765Z,10.45
2023-04-15T20:30:25.517Z,10.43
2023-04-15T20:32:53.422Z,10.40
2023-04-15T20:35:21.457Z,10.38
2023-04-15T20:37:52.626Z,10.35
2023-04-15T20:40:22.883Z,10.34
2023-04-15T20:42:50.794Z,10.29
2023-04-15T20:45:18.907Z,10.20
2023-04-15T20:47:46.839Z,10.15
2023-04-15T20:50:14.962Z,10.13
2023-04-15T20:52:42.922Z,10.09
2023-04-15T20:55:11.177Z,10.07
2023-04-15T20:57:40.682Z,10.01
2023-04-15T21:00:10.932Z,9.96
2023-04-15T21:02:39.066Z,9.91
2023-04-15T21:05:07.870Z,9.93
2023-04-15T21:07:35.797Z,9.90
2023-04-15T21:10:03.769Z,9.86
2023-04-15T21:12:31.981Z,9.87
2023-04-15T21:15:01.672Z,9.81
2023-04-15T21:17:29.698Z,9.54
2023-04-15T21:19:57.678Z,9.74
2023-04-15T21:22:26.250Z,9.71
2023-04-15T21:24:54.124Z,9.63
2023-04-15T21:27:22.010Z,9.64
2023-04-15T21:29:49.970Z,9.56
2023-04-15T21:32:19.385Z,9.53
2023-04-15T21:34:47.412Z,9.49
2023-04-15T21:37:15.313Z,9.45
2023-04-15T21:39:43.252Z,9.44
2023-04-15T21:42:11.204Z,9.40
2023-04-15T21:44:39.203Z,9.31
2023-04-15T21:47:07.190Z,9.31
2023-04-15T21:49:36.644Z,9.29
2023-04-15T21:52:06.245Z,9.25
2023-04-15T21:54:34.281Z,9.23
2023-04-15T21:57:02.231Z,9.20
2023-04-15T21:59:30.156Z,9.17
2023-04-15T22:01:58.287Z,9.04
2023-04-15T22:04:26.533Z,8.73
2023-04-15T22:07:01.466Z,9.06
2023-04-15T22:09:29.375Z,9.09
2023-04-15T22:11:59.270Z,9.07
2023-04-15T22:14:28.286Z,9.06
2023-04-15T22:16:56.670Z,9.06
2023-04-15T22:19:25.864Z,8.95
2023-04-15T22:21:55.222Z,9.02
2023-04-15T22:24:38.914Z,8.95
2023-04-15T22:27:08.324Z,8.99
2023-04-15T22:29:36.340Z,8.97
2023-04-15T22:32:04.298Z,8.96
2023-04-15T22:34:32.226Z,8.94
2023-04-15T22:37:01.586Z,8.92
2023-04-15T22:39:29.534Z,8.91
2023-04-15T22:41:57.754Z,8.89
2023-04-15T22:44:25.750Z,8.91
2023-04-15T22:46:53.720Z,8.89
2023-04-15T22:49:21.571Z,8.89
2023-04-15T22:51:49.512Z,8.86
2023-04-15T22:54:18.743Z,8.85
2023-04-15T22:56:46.630Z,8.84
2023-04-15T22:59:14.494Z,8.82
2023-04-15T23:01:42.462Z,8.82
2023-04-15T23:04:10.959Z,8.82
2023-04-15T23:06:52.222Z,8.80
2023-04-15T23:09:22.410Z,8.82
2023-04-15T23:11:50.533Z,8.83
2023-04-15T23:14:18.420Z,8.82
2023-04-15T23:16:46.394Z,8.83
2023-04-15T23:19:14.294Z,8.86
2023-04-15T23:21:42.315Z,8.86
2023-04-15T23:24:10.416Z,8.87
2023-04-15T23:26:39.749Z,8.83
2023-04-15T23:29:10.957Z,8.76
2023-04-15T23:31:39.090Z,8.81
2023-04-15T23:34:07.178Z,8.79
2023-04-15T23:36:35.136Z,8.79
2023-04-15T23:39:03.062Z,8.80
2023-04-15T23:41:31.036Z,8.80
2023-04-15T23:44:00.323Z,8.80
2023-04-15T23:46:28.262Z,8.79
2023-04-15T23:48:56.237Z,8.78
2023-04-15T23:51:24.141Z,8.78
2023-04-15T23:53:53.008Z,8.63
2023-04-15T23:56:21.307Z,8.73
2023-04-15T23:58:49.230Z,8.75
